Time;durP1;ratioP1;P1;durP2;ratioP2;P2;SDS_P1;SDS_P2;PMS_P1;PMS_P2;Temp;Humidity;BMP_temperature;BMP_pressure;BME280_temperature;BME280_humidity;BME280_pressure;Samples;Min_cycle;Max_cycle;Signal;HPM_P1;HPM_P2
2023/03/16 00:02:10;;;;;;;18.67;8.70;;;0.30;99.90;;;-0.66;100.00;98019.56;5022260;28;20049;-70
2023/03/16 00:04:38;;;;;;;15.63;9.15;;;0.30;99.90;;;-0.59;100.00;98019.59;5020807;28;20041;-70
2023/03/16 00:07:08;;;;;;;17.40;8.85;;;0.40;99.90;;;-0.75;100.00;98009.28;5025067;28;20782;-70
2023/03/16 00:09:39;;;;;;;20.52;10.63;;;0.40;99.90;;;-0.73;100.00;98012.72;5022878;28;20444;-70
2023/03/16 00:12:18;;;;;;;16.67;8.20;;;0.40;99.90;;;-0.60;100.00;98018.75;5023275;28;20056;-70
2023/03/16 00:14:48;;;;;;;17.23;9.05;;;0.40;99.90;;;-0.92;100.00;98016.75;5021247;28;20137;-70
2023/03/16 00:17:18;;;;;;;16.58;9.52;;;0.40;99.90;;;-0.82;100.00;98010.09;5025685;28;20054;-70
2023/03/16 00:19:54;;;;;;;21.83;11.35;;;0.20;99.90;;;-0.83;100.00;98010.91;5023360;28;20050;-70
2023/03/16 00:22:27;;;;;;;18.88;9.05;;;0.20;99.90;;;-0.83;100.00;98003.25;5021117;28;20050;-70
2023/03/16 00:24:55;;;;;;;20.17;10.63;;;0.20;99.90;;;-0.78;100.00;98018.59;5019365;28;20132;-70
2023/03/16 00:27:25;;;;;;;17.27;10.70;;;0.20;99.90;;;-0.89;100.00;98021.91;5037692;28;20046;-70
2023/03/16 00:29:56;;;;;;;21.63;10.70;;;0.30;99.90;;;-0.90;100.00;98021.88;5007077;28;20046;-70
2023/03/16 00:32:33;;;;;;;17.35;9.05;;;0.20;99.90;;;-0.80;100.00;98022.81;5026450;28;20135;-70
2023/03/16 00:35:01;;;;;;;22.08;10.40;;;0.30;99.90;;;-0.94;100.00;98015.88;5019759;28;20073;-71
2023/03/16 00:37:31;;;;;;;21.45;9.93;;;0.30;99.90;;;-1.07;100.00;98014.94;5023935;28;20047;-70
2023/03/16 00:39:59;;;;;;;16.77;9.40;;;0.20;99.90;;;-1.04;100.00;98021.75;5020023;28;20049;-70
2023/03/16 00:42:29;;;;;;;18.17;9.10;;;0.10;99.90;;;-0.96;100.00;98019.25;5040292;28;20056;-70
2023/03/16 00:44:57;;;;;;;16.63;8.88;;;0.10;99.90;;;-0.94;100.00;98015.88;5021610;28;20045;-70
2023/03/16 00:47:31;;;;;;;14.18;8.27;;;0.10;99.90;;;-0.94;100.00;98015.03;5023553;28;20045;-71
2023/03/16 00:49:59;;;;;;;15.88;8.20;;;0.20;99.90;;;-0.95;100.00;98015.88;5050763;28;20061;-70
2023/03/16 00:52:28;;;;;;;14.23;7.43;;;0.10;99.90;;;-0.90;100.00;98009.97;5024150;28;20496;-70
2023/03/16 00:54:56;;;;;;;12.77;7.05;;;0.20;99.90;;;-0.81;100.00;98010.94;5036848;28;20045;-70
2023/03/16 00:57:24;;;;;;;14.27;8.05;;;0.20;99.90;;;-0.88;100.00;98000.66;5024775;28;20126;-70
2023/03/16 00:59:51;;;;;;;12.73;7.32;;;0.20;99.90;;;-0.93;100.00;97989.59;5022331;28;20100;-70
2023/03/16 01:02:22;;;;;;;12.23;7.15;;;0.20;99.90;;;-1.03;100.00;97984.38;5041406;28;20049;-70
2023/03/16 01:04:51;;;;;;;14.82;8.10;;;0.10;99.90;;;-1.20;100.00;97982.50;5049757;28;20095;-70
2023/03/16 01:07:18;;;;;;;13.18;7.97;;;0.10;99.90;;;-1.17;100.00;97990.19;5020346;28;20049;-71
2023/03/16 01:09:46;;;;;;;13.82;8.63;;;-0.10;99.90;;;-1.18;100.00;97974.91;5019834;28;20049;-70
2023/03/16 01:12:16;;;;;;;21.17;9.55;;;-0.10;99.90;;;-1.20;100.00;97986.75;5021799;28;20052;-71
2023/03/16 01:14:44;;;;;;;13.55;8.15;;;-0.20;99.90;;;-1.14;100.00;97997.88;5026317;28;20049;-70
2023/03/16 01:17:13;;;;;;;12.25;7.13;;;-0.10;99.90;;;-1.09;100.00;97996.22;5023372;28;20108;-70
2023/03/16 01:19:41;;;;;;;15.27;6.70;;;0.00;99.90;;;-1.01;100.00;97992.88;5036335;28;20125;-70
2023/03/16 01:22:12;;;;;;;13.48;6.95;;;0.00;99.90;;;-1.13;100.00;97993.63;5028407;28;20077;-70
2023/03/16 01:24:41;;;;;;;11.98;7.10;;;0.00;99.90;;;-1.18;100.00;97992.72;5053964;28;20048;-70
2023/03/16 01:27:08;;;;;;;10.10;6.05;;;0.00;99.90;;;-1.28;100.00;97987.53;5027962;28;20152;-70
2023/03/16 01:29:37;;;;;;;12.70;6.53;;;-0.10;99.90;;;-1.33;100.00;97991.69;5025422;28;21421;-71
2023/03/16 01:32:05;;;;;;;11.98;7.15;;;-0.20;99.90;;;-1.39;100.00;97988.22;5024949;28;20167;-70
2023/03/16 01:34:33;;;;;;;15.38;7.75;;;-0.20;99.90;;;-1.49;100.00;97987.28;5025169;28;20054;-71
2023/03/16 01:37:00;;;;;;;9.85;6.45;;;-0.30;99.90;;;-1.29;100.00;97977.31;5026009;28;20511;-70
2023/03/16 01:39:27;;;;;;;11.27;6.97;;;-0.20;99.90;;;-1.32;100.00;97967.97;5021560;28;20450;-70
2023/03/16 01:41:54;;;;;;;11.52;6.80;;;-0.20;99.90;;;-1.41;100.00;97965.31;5025063;28;20132;-70
2023/03/16 01:44:34;;;;;;;11.77;7.03;;;-0.20;99.90;;;-1.36;100.00;97963.66;5022913;28;20076;-70
2023/03/16 01:47:01;;;;;;;12.13;6.35;;;-0.20;99.90;;;-1.33;100.00;97963.69;5027411;28;20046;-70
2023/03/16 01:49:35;;;;;;;12.73;6.85;;;-0.30;99.90;;;-1.39;100.00;97963.66;5027674;28;20580;-70
2023/03/16 01:52:14;;;;;;;11.43;7.57;;;-0.30;99.90;;;-1.37;100.00;97956.00;5025549;28;20137;-70
2023/03/16 01:55:03;;;;;;;13.85;7.47;;;-0.40;99.90;;;-1.29;100.00;97955.25;5026755;28;20136;-70
2023/03/16 01:57:36;;;;;;;12.43;6.50;;;-0.30;99.90;;;-1.40;100.00;97959.38;5026007;28;20056;-70
2023/03/16 02:00:30;;;;;;;13.32;7.53;;;-0.50;99.90;;;-1.43;100.00;97955.97;5025097;28;20060;-71
2023/03/16 02:03:07;;;;;;;15.02;8.45;;;-0.60;99.90;;;-1.52;100.00;97954.16;5024921;28;20077;-70
2023/03/16 02:06:02;;;;;;;12.27;7.95;;;-0.60;99.90;;;-1.55;100.00;97954.97;5025851;28;20063;-70
2023/03/16 02:08:30;;;;;;;12.85;8.18;;;-0.60;99.90;;;-1.45;100.00;97955.09;5011317;28;20451;-70
2023/03/16 02:10:58;;;;;;;11.85;8.25;;;-0.50;99.90;;;-1.63;100.00;97941.28;5036508;28;20053;-71
2023/03/16 02:13:28;;;;;;;29.63;13.02;;;-0.40;99.90;;;-1.55;100.00;97949.00;5021390;28;20090;-71
2023/03/16 02:15:55;;;;;;;183.90;62.75;;;-0.50;99.90;;;-1.73;100.00;97937.81;5026001;28;20053;-70
2023/03/16 02:18:22;;;;;;;166.65;57.13;;;-0.60;99.90;;;-1.58;100.00;97932.00;5021243;28;20057;-71
2023/03/16 02:21:06;;;;;;;296.52;85.00;;;-0.50;99.90;;;-1.72;100.00;97919.13;5023380;28;20068;-70
2023/03/16 02:23:33;;;;;;;167.02;53.90;;;-0.60;99.90;;;-1.73;100.00;97929.31;5040159;28;20049;-70
2023/03/16 02:26:02;;;;;;;272.08;77.15;;;-0.70;99.90;;;-1.73;100.00;97922.53;5021720;28;20056;-70
2023/03/16 02:28:46;;;;;;;88.97;30.38;;;-0.70;99.90;;;-1.60;100.00;97915.88;5007868;28;20053;-70
2023/03/16 02:31:17;;;;;;;80.78;28.23;;;-0.70;99.90;;;-1.64;100.00;97916.69;5020976;28;20145;-70
2023/03/16 02:33:46;;;;;;;33.20;12.63;;;-0.60;99.90;;;-1.42;100.00;97909.28;5026932;28;20045;-70
2023/03/16 02:36:14;;;;;;;481.98;165.82;;;-0.50;99.90;;;-1.48;100.00;97910.94;5021341;28;20084;-70
2023/03/16 02:38:41;;;;;;;153.27;49.10;;;-0.60;99.90;;;-1.73;100.00;97901.31;5042124;28;20092;-70
2023/03/16 02:41:13;;;;;;;42.95;18.98;;;-0.60;99.90;;;-1.63;100.00;97899.72;5019987;28;20058;-70
2023/03/16 02:43:53;;;;;;;17.52;9.70;;;-0.60;99.90;;;-1.62;100.00;97894.66;5019877;28;20057;-70
2023/03/16 02:46:26;;;;;;;39.05;21.30;;;-0.60;99.90;;;-1.46;100.00;97893.09;5018821;28;20060;-70
2023/03/16 02:49:21;;;;;;;18.80;9.52;;;-0.60;99.90;;;-1.52;100.00;97890.50;5025018;28;20045;-70
2023/03/16 02:51:48;;;;;;;15.13;8.45;;;-0.50;99.90;;;-1.44;100.00;97882.94;5022784;28;20045;-70
2023/03/16 02:54:20;;;;;;;13.90;8.10;;;-0.50;99.90;;;-1.58;100.00;97878.56;5016929;28;20073;-69
2023/03/16 02:56:47;;;;;;;16.95;10.05;;;-0.40;99.90;;;-1.49;100.00;97873.56;5006223;28;20050;-70
2023/03/16 02:59:14;;;;;;;18.33;8.77;;;-0.50;99.90;;;-1.51;100.00;97879.47;5019143;28;20046;-70
2023/03/16 03:01:41;;;;;;;18.92;9.55;;;-0.50;99.90;;;-1.51;100.00;97877.78;5016990;28;20077;-70
2023/03/16 03:04:08;;;;;;;15.73;7.70;;;-0.50;99.90;;;-1.45;100.00;97874.47;5021420;28;20061;-70
2023/03/16 03:06:36;;;;;;;18.33;8.35;;;-0.50;99.90;;;-1.37;100.00;97875.41;5022588;28;20313;-70
2023/03/16 03:09:04;;;;;;;13.75;8.63;;;-0.40;99.90;;;-1.40;100.00;97877.91;5021636;28;20050;-70
2023/03/16 03:11:31;;;;;;;17.63;8.25;;;-0.40;99.90;;;-1.42;100.00;97879.56;5020456;28;20121;-70
2023/03/16 03:13:58;;;;;;;15.48;6.47;;;-0.50;99.90;;;-1.58;100.00;97876.00;5019312;28;20052;-70
2023/03/16 03:16:25;;;;;;;15.77;8.38;;;-0.60;99.90;;;-1.57;100.00;97871.81;5025877;28;20569;-70
2023/03/16 03:18:52;;;;;;;19.63;10.68;;;-0.60;99.90;;;-1.74;100.00;97869.06;5024476;28;20061;-70
2023/03/16 03:21:20;;;;;;;15.45;7.80;;;-0.60;99.90;;;-1.49;100.00;97870.16;5020690;28;20081;-70
2023/03/16 03:23:47;;;;;;;11.52;7.57;;;-0.60;99.90;;;-1.63;100.00;97859.84;5017544;28;20128;-70
2023/03/16 03:26:15;;;;;;;12.00;5.90;;;-0.60;99.90;;;-1.53;100.00;97863.34;5008315;28;20060;-71
2023/03/16 03:28:43;;;;;;;11.82;6.15;;;-0.60;99.90;;;-1.41;100.00;97860.94;5023928;28;20073;-70
2023/03/16 03:31:21;;;;;;;11.82;6.60;;;-0.50;99.90;;;-1.50;100.00;97854.03;5033793;28;20402;-70
2023/03/16 03:33:48;;;;;;;10.68;7.28;;;-0.50;99.90;;;-1.57;100.00;97852.28;5019976;28;20045;-72
2023/03/16 03:36:15;;;;;;;12.32;7.32;;;-0.50;99.90;;;-1.64;100.00;97853.06;5020226;28;20053;-70
2023/03/16 03:38:43;;;;;;;9.70;6.75;;;-0.50;99.90;;;-1.57;100.00;97856.53;5019765;28;20046;-71
2023/03/16 03:41:10;;;;;;;14.70;7.38;;;-0.60;99.90;;;-1.67;100.00;97855.56;5022413;28;20542;-70
2023/03/16 03:43:37;;;;;;;12.90;7.20;;;-0.60;99.90;;;-1.50;100.00;97854.03;5023525;28;20470;-70
2023/03/16 03:46:04;;;;;;;12.10;6.82;;;-0.60;99.90;;;-1.38;100.00;97852.47;5019191;28;20085;-70
2023/03/16 03:48:32;;;;;;;12.27;6.18;;;-0.50;99.90;;;-1.42;100.00;97858.34;5023719;28;20059;-70
2023/03/16 03:50:59;;;;;;;11.07;5.97;;;-0.40;99.90;;;-1.43;100.00;97852.41;5021581;28;20061;-70
2023/03/16 03:53:29;;;;;;;12.27;7.82;;;-0.40;99.90;;;-1.52;100.00;97850.63;5033921;28;20089;-70
2023/03/16 03:55:57;;;;;;;12.95;7.18;;;-0.40;99.90;;;-1.57;100.00;97849.75;5023460;28;20049;-70
2023/03/16 03:58:23;;;;;;;14.30;7.35;;;-0.50;99.90;;;-1.58;100.00;97845.47;5019295;28;20050;-70
2023/03/16 04:00:51;;;;;;;10.10;6.03;;;-0.50;99.90;;;-1.55;100.00;97849.72;5017253;28;20054;-70
2023/03/16 04:03:20;;;;;;;13.27;7.18;;;-0.60;99.90;;;-1.64;100.00;97849.66;5020039;28;20056;-70
2023/03/16 04:05:47;;;;;;;12.02;7.20;;;-0.60;99.90;;;-1.64;100.00;97839.47;5020022;28;20045;-70
2023/03/16 04:08:15;;;;;;;10.80;5.93;;;-0.60;99.90;;;-1.52;100.00;97837.06;5018755;28;20069;-70
2023/03/16 04:10:42;;;;;;;12.82;7.38;;;-0.60;99.90;;;-1.62;100.00;97842.88;5032928;28;20573;-70
2023/03/16 04:13:09;;;;;;;11.55;7.07;;;-0.50;99.90;;;-1.61;100.00;97840.34;5023143;28;20436;-70
2023/03/16 04:15:37;;;;;;;10.85;7.15;;;-0.60;99.90;;;-1.47;100.00;97843.03;5017019;28;20042;-70
2023/03/16 04:18:04;;;;;;;12.55;7.15;;;-0.50;99.90;;;-1.53;100.00;97845.50;5016840;28;20041;-70
2023/03/16 04:20:31;;;;;;;14.55;7.65;;;-0.50;99.90;;;-1.40;100.00;97837.16;5019605;28;20046;-70
2023/03/16 04:22:58;;;;;;;13.70;7.72;;;-0.50;99.90;;;-1.45;100.00;97843.91;5019980;28;20148;-69
2023/03/16 04:25:28;;;;;;;11.55;6.82;;;-0.50;99.90;;;-1.40;100.00;97847.34;5021178;28;20055;-70
2023/03/16 04:27:56;;;;;;;11.15;5.95;;;-0.50;99.90;;;-1.34;100.00;97836.38;5015964;28;20608;-70
2023/03/16 04:30:23;;;;;;;9.05;5.85;;;-0.40;99.90;;;-1.27;100.00;97833.03;5020097;28;20077;-70
2023/03/16 04:32:51;;;;;;;12.98;7.45;;;-0.30;99.90;;;-1.38;100.00;97832.94;5018455;28;20046;-70
2023/03/16 04:35:18;;;;;;;10.32;6.97;;;-0.40;99.90;;;-1.50;100.00;97832.84;5033703;28;20538;-71
2023/03/16 04:37:45;;;;;;;14.35;7.60;;;-0.40;99.90;;;-1.55;100.00;97827.69;5022460;28;20441;-70
2023/03/16 04:40:16;;;;;;;15.00;8.13;;;-0.50;99.90;;;-1.49;100.00;97829.44;5022534;28;20050;-70
2023/03/16 04:42:45;;;;;;;15.98;8.32;;;-0.50;99.90;;;-1.38;100.00;97819.34;5024811;28;20107;-70
2023/03/16 04:45:14;;;;;;;14.95;7.78;;;-0.40;99.90;;;-1.42;100.00;97823.56;5033795;28;20058;-70
2023/03/16 04:47:42;;;;;;;11.90;7.43;;;-0.40;99.90;;;-1.34;100.00;97821.09;5023247;28;20061;-70
2023/03/16 04:50:10;;;;;;;14.32;7.50;;;-0.40;99.90;;;-1.42;100.00;97821.00;5024558;28;20054;-70
2023/03/16 04:52:38;;;;;;;16.30;7.75;;;-0.40;99.90;;;-1.50;100.00;97817.56;5029794;28;20049;-70
2023/03/16 04:55:05;;;;;;;11.02;6.40;;;-0.40;99.90;;;-1.52;100.00;97822.63;5026440;28;20133;-70
2023/03/16 04:57:33;;;;;;;11.30;6.88;;;-0.40;99.90;;;-1.41;100.00;97817.63;5030246;28;20089;-70
2023/03/16 05:00:01;;;;;;;10.23;6.50;;;-0.40;99.90;;;-1.49;100.00;97809.06;5025716;28;20045;-70
2023/03/16 05:02:28;;;;;;;11.10;6.90;;;-0.40;99.90;;;-1.44;100.00;97809.94;5022810;28;20558;-70
2023/03/16 05:04:55;;;;;;;12.32;6.63;;;-0.40;99.90;;;-1.44;100.00;97809.94;5021827;28;20049;-70
2023/03/16 05:07:22;;;;;;;11.07;7.65;;;-0.40;99.90;;;-1.51;100.00;97798.84;5025458;28;20053;-70
2023/03/16 05:09:49;;;;;;;11.27;7.00;;;-0.40;99.90;;;-1.55;100.00;97797.16;5034797;28;20132;-70
2023/03/16 05:12:15;;;;;;;12.32;7.68;;;-0.40;99.90;;;-1.46;100.00;97798.91;5022221;28;20057;-70
2023/03/16 05:14:42;;;;;;;11.63;6.20;;;-0.40;99.90;;;-1.50;100.00;97797.19;5026599;28;20128;-70
2023/03/16 05:17:13;;;;;;;14.52;8.02;;;-0.30;99.90;;;-1.58;100.00;97802.19;5021496;28;20052;-70
2023/03/16 05:19:41;;;;;;;13.68;7.57;;;-0.50;99.90;;;-1.59;100.00;97802.19;5021988;28;20073;-70
2023/03/16 05:22:08;;;;;;;14.43;7.57;;;-0.50;99.90;;;-1.52;100.00;97799.72;5020415;28;20510;-70
2023/03/16 05:24:36;;;;;;;11.38;6.90;;;-0.50;99.90;;;-1.52;100.00;97803.97;5024575;28;20064;-70
2023/03/16 05:27:03;;;;;;;12.40;7.47;;;-0.40;99.90;;;-1.50;100.00;97800.59;5023827;28;20057;-70
2023/03/16 05:29:30;;;;;;;16.52;8.15;;;-0.50;99.90;;;-1.62;100.00;97805.56;5025808;28;20072;-70
2023/03/16 05:31:58;;;;;;;15.90;8.90;;;-0.50;99.90;;;-1.69;100.00;97811.41;5040525;28;20056;-70
2023/03/16 05:34:26;;;;;;;13.85;8.18;;;-0.70;99.90;;;-1.77;100.00;97805.44;5025327;28;20470;-70
2023/03/16 05:36:56;;;;;;;14.73;7.82;;;-0.60;99.90;;;-1.58;100.00;97807.28;5023756;28;20042;-70
2023/03/16 05:39:23;;;;;;;14.35;8.32;;;-0.60;99.90;;;-1.60;100.00;97808.97;5023265;28;20045;-70
2023/03/16 05:41:50;;;;;;;16.88;9.40;;;-0.60;99.90;;;-1.53;100.00;97803.13;5022633;28;20050;-70
2023/03/16 05:44:17;;;;;;;23.60;13.95;;;-0.50;99.90;;;-1.53;100.00;97807.31;5024626;28;20519;-70
2023/03/16 05:46:44;;;;;;;25.25;13.52;;;-0.50;99.90;;;-1.43;100.00;97811.69;5022929;28;20495;-70
2023/03/16 05:49:11;;;;;;;28.02;19.65;;;-0.50;99.90;;;-1.57;100.00;97810.72;5024678;28;20107;-70
2023/03/16 05:51:38;;;;;;;24.73;15.57;;;-0.50;99.90;;;-1.71;100.00;97818.19;5026096;28;20053;-70
2023/03/16 05:54:06;;;;;;;19.63;12.95;;;-0.60;99.90;;;-1.53;100.00;97809.88;5025349;28;20054;-70
2023/03/16 05:56:33;;;;;;;22.08;12.10;;;-0.60;99.90;;;-1.72;100.00;97812.25;5026685;28;20042;-70
2023/03/16 05:59:01;;;;;;;16.50;10.40;;;-0.60;99.90;;;-1.64;100.00;97814.88;5017977;28;20038;-71
2023/03/16 06:01:28;;;;;;;15.85;10.00;;;-0.50;99.90;;;-1.48;100.00;97813.34;5020337;28;20202;-71
2023/03/16 06:03:55;;;;;;;16.73;10.65;;;-0.50;99.90;;;-1.70;100.00;97814.81;5024114;28;20041;-71
2023/03/16 06:06:22;;;;;;;16.92;10.65;;;-0.60;99.90;;;-1.70;100.00;97808.03;5057478;28;20057;-70
2023/03/16 06:08:50;;;;;;;17.90;10.35;;;-0.60;99.90;;;-1.61;100.00;97817.44;5022840;28;20042;-70
2023/03/16 06:11:16;;;;;;;17.98;10.43;;;-0.60;99.90;;;-1.41;100.00;97815.09;5023721;28;20068;-70
2023/03/16 06:13:44;;;;;;;16.58;10.15;;;-0.50;99.90;;;-1.50;100.00;97818.41;5018150;28;20053;-70
2023/03/16 06:16:13;;;;;;;15.45;9.52;;;-0.50;99.90;;;-1.49;100.00;97821.78;5020994;28;20046;-70
2023/03/16 06:18:40;;;;;;;14.05;7.95;;;-0.60;99.90;;;-1.51;100.00;97814.13;5014414;28;20045;-70
2023/03/16 06:21:07;;;;;;;14.18;8.57;;;-0.70;99.90;;;-1.51;100.00;97815.84;5027824;28;20042;-70
2023/03/16 06:23:35;;;;;;;14.43;8.27;;;-0.70;99.90;;;-1.53;100.00;97815.84;5015455;28;20056;-69
2023/03/16 06:26:02;;;;;;;20.45;9.95;;;-0.70;99.90;;;-1.58;100.00;97814.91;5012718;28;20068;-71
2023/03/16 06:28:29;;;;;;;14.50;7.80;;;-0.70;99.90;;;-1.46;100.00;97816.72;5013967;28;20057;-71
2023/03/16 06:30:57;;;;;;;13.10;8.13;;;-0.80;99.90;;;-1.39;100.00;97815.97;5026368;28;20543;-71
2023/03/16 06:33:24;;;;;;;14.95;8.20;;;-0.70;99.90;;;-1.38;100.00;97810.00;5009441;28;20154;-72
2023/03/16 06:35:52;;;;;;;15.77;8.35;;;-0.60;99.90;;;-1.22;100.00;97808.44;5012756;28;20431;-71
2023/03/16 06:38:19;;;;;;;12.60;6.90;;;-0.50;99.90;;;-1.00;100.00;97803.50;5013843;28;20049;-71
2023/03/16 06:40:54;;;;;;;20.05;9.88;;;-0.50;99.90;;;-0.91;100.00;97817.16;5018572;28;20397;-71
2023/03/16 06:43:21;;;;;;;14.88;8.77;;;-0.50;99.90;;;-0.91;100.00;97812.06;5026047;28;20046;-71
2023/03/16 06:45:48;;;;;;;14.80;7.53;;;-0.40;99.90;;;-0.76;100.00;97818.94;5014429;28;20512;-71
2023/03/16 06:48:18;;;;;;;14.98;9.90;;;-0.30;99.90;;;-0.78;100.00;97814.69;5017644;28;20144;-71
2023/03/16 06:50:45;;;;;;;19.80;11.48;;;-0.30;99.90;;;-0.76;100.00;97811.31;5011957;28;20053;-71
2023/03/16 06:53:12;;;;;;;19.13;12.05;;;-0.20;99.90;;;-0.69;100.00;97802.00;5016295;28;20074;-71
2023/03/16 06:55:40;;;;;;;18.63;11.02;;;-0.10;99.90;;;-0.59;100.00;97802.91;5012104;28;20649;-71
2023/03/16 06:58:07;;;;;;;16.27;10.68;;;0.10;99.90;;;-0.49;100.00;97804.66;5014078;28;20046;-71
2023/03/16 07:00:34;;;;;;;14.60;10.73;;;0.20;99.90;;;-0.50;100.00;97800.38;5030281;28;20311;-71
2023/03/16 07:03:01;;;;;;;19.20;11.32;;;0.20;99.90;;;-0.40;100.00;97801.31;5015403;28;20051;-71
2023/03/16 07:05:28;;;;;;;19.00;11.10;;;0.30;99.90;;;-0.19;100.00;97788.63;5009375;28;21223;-70
2023/03/16 07:07:55;;;;;;;18.70;11.07;;;0.40;99.90;;;-0.04;100.00;97780.19;5015342;28;20464;-71
2023/03/16 07:10:24;;;;;;;27.23;11.68;;;0.60;99.90;;;0.21;100.00;97788.75;5011545;28;20045;-71
2023/03/16 07:12:51;;;;;;;24.02;13.02;;;0.70;99.90;;;0.44;100.00;97780.25;5008639;28;20141;-71
2023/03/16 07:15:18;;;;;;;27.10;16.02;;;0.90;99.90;;;0.30;100.00;97773.44;5017791;28;20054;-71
2023/03/16 07:17:45;;;;;;;25.10;13.52;;;0.90;99.90;;;0.40;100.00;97775.13;5016370;28;20042;-71
2023/03/16 07:20:12;;;;;;;20.27;10.63;;;1.10;99.90;;;0.59;100.00;97767.47;5015424;28;20050;-71
2023/03/16 07:22:40;;;;;;;16.67;10.02;;;1.20;99.90;;;0.75;100.00;97768.31;5013178;28;20128;-71
2023/03/16 07:25:10;;;;;;;22.90;12.88;;;1.30;99.90;;;0.88;100.00;97771.75;5013419;28;20058;-71
2023/03/16 07:27:42;;;;;;;21.63;12.25;;;1.50;99.90;;;1.10;100.00;97767.47;5013328;28;20156;-71
2023/03/16 07:30:13;;;;;;;22.13;12.40;;;1.60;99.90;;;1.06;100.00;97766.59;5028623;28;20054;-71
2023/03/16 07:32:41;;;;;;;19.80;10.38;;;1.70;99.90;;;1.44;100.00;97765.66;5012768;28;20053;-71
2023/03/16 07:35:10;;;;;;;15.48;8.88;;;1.90;99.90;;;1.75;100.00;97768.09;5011038;28;20154;-71
2023/03/16 07:37:37;;;;;;;12.73;7.28;;;2.10;99.90;;;2.08;100.00;97769.63;5025008;28;20054;-70
2023/03/16 07:40:07;;;;;;;17.02;9.07;;;2.40;99.90;;;2.28;100.00;97774.59;5014205;28;20439;-71
2023/03/16 07:42:35;;;;;;;18.55;9.93;;;2.70;99.90;;;2.47;100.00;97757.44;5010027;28;21845;-71
2023/03/16 07:45:04;;;;;;;18.40;9.45;;;2.90;99.90;;;2.55;100.00;97760.75;5015156;28;20132;-71
2023/03/16 07:47:34;;;;;;;14.43;8.23;;;3.10;99.90;;;3.14;100.00;97761.09;5011201;28;20071;-71
2023/03/16 07:50:01;;;;;;;13.25;6.70;;;3.20;99.90;;;3.45;100.00;97755.66;5021073;28;20071;-71
2023/03/16 07:52:28;;;;;;;8.07;4.18;;;3.40;99.90;;;3.76;100.00;97744.16;5041546;28;20061;-71
2023/03/16 07:54:55;;;;;;;9.75;5.20;;;3.60;99.90;;;3.87;100.00;97745.72;5006653;28;20045;-71
2023/03/16 07:57:22;;;;;;;7.55;4.28;;;3.90;99.90;;;4.17;100.00;97750.44;5021518;28;20060;-71
2023/03/16 07:59:50;;;;;;;6.90;3.15;;;4.10;99.90;;;4.69;100.00;97745.38;5022524;28;20124;-71
2023/03/16 08:02:20;;;;;;;5.38;2.90;;;4.40;99.90;;;5.34;100.00;97737.38;5019896;28;20064;-69
2023/03/16 08:04:47;;;;;;;5.45;2.53;;;5.20;99.90;;;6.32;100.00;97730.19;5022001;28;20053;-69
2023/03/16 08:07:15;;;;;;;4.22;2.72;;;6.20;99.90;;;7.42;100.00;97718.78;5021696;28;20049;-68
2023/03/16 08:09:42;;;;;;;6.03;2.30;;;7.40;99.90;;;8.31;100.00;97711.00;5022103;28;20045;-68
2023/03/16 08:12:10;;;;;;;7.72;2.60;;;8.30;99.90;;;7.77;100.00;97713.50;5022574;28;20377;-69
2023/03/16 08:14:37;;;;;;;3.85;1.70;;;8.60;99.90;;;7.85;100.00;97716.72;5020922;28;20049;-70
2023/03/16 08:17:06;;;;;;;3.97;1.10;;;8.90;99.90;;;7.64;100.00;97718.16;5021226;28;20711;-70
2023/03/16 08:19:34;;;;;;;2.47;0.80;;;8.80;99.90;;;6.68;100.00;97731.03;5020773;28;20583;-70
2023/03/16 08:22:02;;;;;;;2.92;1.00;;;8.30;99.90;;;6.41;100.00;97714.50;5023339;28;20551;-70
2023/03/16 08:24:29;;;;;;;6.13;1.08;;;7.90;99.90;;;6.28;100.00;97720.81;5021471;28;20049;-70
2023/03/16 08:26:58;;;;;;;5.57;1.10;;;7.50;99.90;;;6.42;100.00;97713.59;5019766;28;20045;-69
2023/03/16 08:29:25;;;;;;;5.93;1.08;;;7.20;99.90;;;6.07;100.00;97709.28;5025055;28;20152;-70
2023/03/16 08:31:55;;;;;;;3.95;1.17;;;7.00;99.90;;;5.85;100.00;97717.41;5022551;28;20042;-69
2023/03/16 08:34:23;;;;;;;4.93;0.90;;;6.90;99.90;;;6.67;100.00;97719.00;5053595;28;20041;-70
2023/03/16 08:36:50;;;;;;;2.53;0.90;;;6.90;99.90;;;7.11;100.00;97727.34;5024271;28;20087;-70
2023/03/16 08:39:17;;;;;;;2.08;0.90;;;6.90;99.90;;;6.99;100.00;97725.09;5018753;28;20580;-69
2023/03/16 08:41:45;;;;;;;2.42;0.80;;;7.50;99.90;;;7.66;100.00;97731.88;5022457;28;20111;-69
2023/03/16 08:44:14;;;;;;;2.83;0.85;;;8.10;99.90;;;7.88;100.00;97726.97;5019383;28;20138;-69
2023/03/16 08:46:41;;;;;;;3.03;1.00;;;8.80;99.90;;;8.76;100.00;97722.53;5021861;28;20905;-69
2023/03/16 08:49:08;;;;;;;3.25;0.90;;;9.20;99.90;;;8.35;100.00;97717.75;5037405;28;20065;-69
2023/03/16 08:51:35;;;;;;;2.00;0.82;;;9.70;99.90;;;8.84;100.00;97720.53;5023000;28;20095;-69
2023/03/16 08:54:02;;;;;;;3.30;0.70;;;9.80;99.90;;;9.00;100.00;97721.69;5023874;28;20104;-69
2023/03/16 08:56:29;;;;;;;3.85;1.02;;;10.30;99.90;;;9.60;100.00;97719.63;5020686;28;20046;-69
2023/03/16 08:58:57;;;;;;;4.60;1.23;;;10.70;99.90;;;9.65;100.00;97724.63;5021069;28;20049;-70
2023/03/16 09:01:25;;;;;;;3.15;0.60;;;11.00;99.90;;;9.47;100.00;97727.88;5020965;28;20056;-69
2023/03/16 09:03:53;;;;;;;2.55;0.60;;;11.30;99.90;;;9.57;100.00;97718.88;5032970;28;20133;-70
2023/03/16 09:06:21;;;;;;;2.08;0.60;;;11.40;99.90;;;9.26;100.00;97717.38;5021006;28;20488;-70
2023/03/16 09:08:48;;;;;;;2.20;0.60;;;11.50;99.90;;;8.98;100.00;97727.81;5021579;28;20061;-70
2023/03/16 09:11:17;;;;;;;2.42;0.90;;;11.40;99.90;;;9.97;100.00;97731.22;5023809;28;20045;-70
2023/03/16 09:13:46;;;;;;;3.22;0.63;;;11.40;99.90;;;10.23;100.00;97709.44;5035569;28;20477;-70
2023/03/16 09:16:14;;;;;;;1.48;0.63;;;11.60;99.90;;;10.22;100.00;97709.53;5021042;28;20060;-69
2023/03/16 09:18:42;;;;;;;1.77;0.60;;;11.50;99.90;;;10.25;100.00;97701.63;5004355;28;20123;-69
2023/03/16 09:21:12;;;;;;;2.35;0.80;;;11.90;99.90;;;9.93;100.00;97701.09;5018712;28;20129;-70
2023/03/16 09:23:41;;;;;;;2.90;0.70;;;11.80;99.90;;;10.72;100.00;97696.31;5020321;28;20085;-69
2023/03/16 09:26:11;;;;;;;2.72;0.70;;;12.10;99.90;;;11.37;100.00;97699.59;5030924;28;20045;-69
2023/03/16 09:28:40;;;;;;;3.42;0.90;;;11.80;99.90;;;9.92;100.00;97707.22;5017267;28;20499;-69
2023/03/16 09:31:16;;;;;;;2.17;0.60;;;11.70;99.70;;;10.00;100.00;97699.13;5016663;28;20060;-69
2023/03/16 09:33:43;;;;;;;2.90;0.70;;;11.40;99.90;;;9.07;100.00;97709.38;5022632;28;20104;-69
2023/03/16 09:36:11;;;;;;;2.67;0.60;;;11.10;99.90;;;9.26;100.00;97706.16;5027504;28;20172;-70
2023/03/16 09:38:39;;;;;;;1.75;0.77;;;10.80;99.90;;;9.16;100.00;97698.72;5021127;28;20049;-69
2023/03/16 09:41:15;;;;;;;1.52;0.70;;;10.40;99.90;;;8.64;100.00;97705.66;5025531;28;20056;-69
2023/03/16 09:44:20;;;;;;;2.30;0.70;;;9.90;99.90;;;8.99;100.00;97706.22;5026663;28;20053;-69
2023/03/16 09:46:50;;;;;;;4.57;0.80;;;9.50;99.90;;;8.91;100.00;97700.47;5022349;28;20077;-69
2023/03/16 09:49:20;;;;;;;1.98;0.63;;;9.80;99.90;;;8.45;100.00;97701.97;5022033;28;20514;-69
2023/03/16 09:52:05;;;;;;;2.30;0.70;;;9.50;99.90;;;8.48;100.00;97704.47;5019684;28;20053;-68
2023/03/16 09:55:28;;;;;;;2.03;0.63;;;9.60;99.90;;;8.23;100.00;97700.03;5023916;28;20057;-68
2023/03/16 09:58:35;;;;;;;2.75;0.60;;;9.60;99.90;;;8.41;100.00;97698.63;5021281;28;20050;-69
2023/03/16 10:05:05;;;;;;;2.83;0.65;;;10.00;99.90;;;9.99;100.00;97702.59;5022510;28;20057;-68
2023/03/16 10:08:12;;;;;;;2.03;0.57;;;10.60;99.90;;;9.90;100.00;97702.97;5022062;28;20057;-68
2023/03/16 10:11:27;;;;;;;2.53;0.70;;;10.60;99.90;;;10.31;100.00;97692.75;5019709;28;20072;-69
2023/03/16 10:14:25;;;;;;;2.30;0.70;;;10.20;99.90;;;9.30;100.00;97694.78;5027633;28;20132;-69
2023/03/16 10:17:27;;;;;;;3.13;0.90;;;10.30;99.90;;;9.53;100.00;97679.25;5019086;28;20046;-69
2023/03/16 10:19:58;;;;;;;4.55;0.80;;;10.00;99.90;;;9.99;100.00;97681.84;5025084;28;20045;-69
2023/03/16 10:22:32;;;;;;;4.13;0.93;;;10.10;99.90;;;10.33;100.00;97688.34;5023720;28;20132;-69
2023/03/16 10:25:17;;;;;;;3.05;0.90;;;10.00;99.90;;;9.71;100.00;97690.69;5021358;28;20053;-69
2023/03/16 10:27:46;;;;;;;3.42;0.75;;;9.80;99.90;;;9.60;100.00;97682.47;5019356;28;20054;-69